sensor_id;sensor_type;location;lat;lon;timestamp;P1;durP1;ratioP1;P2;durP2;ratioP2
23988;SDS011;12202;52.136;5.592;2023-04-25T00:02:23;37.03;;;8.48;;
23988;SDS011;12202;52.136;5.592;2023-04-25T00:04:49;31.23;;;8.07;;
23988;SDS011;12202;52.136;5.592;2023-04-25T00:07:16;31.30;;;7.30;;
23988;SDS011;12202;52.136;5.592;2023-04-25T00:09:43;37.03;;;8.20;;
23988;SDS011;12202;52.136;5.592;2023-04-25T00:12:09;32.25;;;8.95;;
23988;SDS011;12202;52.136;5.592;2023-04-25T00:14:35;34.15;;;9.30;;
23988;SDS011;12202;52.136;5.592;2023-04-25T00:17:01;39.17;;;9.73;;
23988;SDS011;12202;52.136;5.592;2023-04-25T00:19:27;38.03;;;8.25;;
23988;SDS011;12202;52.136;5.592;2023-04-25T00:21:57;34.95;;;8.05;;
23988;SDS011;12202;52.136;5.592;2023-04-25T00:24:23;29.27;;;8.93;;
23988;SDS011;12202;52.136;5.592;2023-04-25T00:26:49;44.55;;;9.43;;
23988;SDS011;12202;52.136;5.592;2023-04-25T00:29:15;45.03;;;9.98;;
23988;SDS011;12202;52.136;5.592;2023-04-25T00:31:41;31.98;;;8.25;;
23988;SDS011;12202;52.136;5.592;2023-04-25T00:34:07;40.75;;;9.77;;
23988;SDS011;12202;52.136;5.592;2023-04-25T00:36:33;40.78;;;12.15;;
23988;SDS011;12202;52.136;5.592;2023-04-25T00:38:59;34.58;;;9.25;;
23988;SDS011;12202;52.136;5.592;2023-04-25T00:41:25;35.15;;;9.70;;
23988;SDS011;12202;52.136;5.592;2023-04-25T00:43:52;43.20;;;9.77;;
23988;SDS011;12202;52.136;5.592;2023-04-25T00:46:19;33.10;;;7.93;;
23988;SDS011;12202;52.136;5.592;2023-04-25T00:48:45;41.20;;;9.80;;
23988;SDS011;12202;52.136;5.592;2023-04-25T00:51:13;40.15;;;9.27;;
23988;SDS011;12202;52.136;5.592;2023-04-25T00:53:40;38.85;;;10.35;;
23988;SDS011;12202;52.136;5.592;2023-04-25T00:56:06;44.70;;;10.07;;
23988;SDS011;12202;52.136;5.592;2023-04-25T01:01:31;36.45;;;9.50;;
23988;SDS011;12202;52.136;5.592;2023-04-25T01:03:58;35.17;;;10.50;;
23988;SDS011;12202;52.136;5.592;2023-04-25T01:06:24;44.90;;;11.20;;
23988;SDS011;12202;52.136;5.592;2023-04-25T01:08:51;30.42;;;9.30;;
23988;SDS011;12202;52.136;5.592;2023-04-25T01:11:17;40.55;;;10.65;;
23988;SDS011;12202;52.136;5.592;2023-04-25T01:13:43;35.42;;;8.95;;
23988;SDS011;12202;52.136;5.592;2023-04-25T01:16:09;36.95;;;9.07;;
23988;SDS011;12202;52.136;5.592;2023-04-25T01:18:36;41.60;;;9.35;;
23988;SDS011;12202;52.136;5.592;2023-04-25T01:21:12;39.63;;;9.45;;
23988;SDS011;12202;52.136;5.592;2023-04-25T01:23:39;41.85;;;9.90;;
23988;SDS011;12202;52.136;5.592;2023-04-25T01:26:06;33.40;;;8.65;;
23988;SDS011;12202;52.136;5.592;2023-04-25T01:28:33;34.60;;;8.73;;
23988;SDS011;12202;52.136;5.592;2023-04-25T01:30:59;28.33;;;8.35;;
23988;SDS011;12202;52.136;5.592;2023-04-25T01:33:26;47.22;;;8.85;;
23988;SDS011;12202;52.136;5.592;2023-04-25T01:35:53;80.95;;;11.52;;
23988;SDS011;12202;52.136;5.592;2023-04-25T01:38:19;35.67;;;8.38;;
23988;SDS011;12202;52.136;5.592;2023-04-25T01:40:45;30.48;;;8.52;;
23988;SDS011;12202;52.136;5.592;2023-04-25T01:43:14;32.05;;;10.30;;
23988;SDS011;12202;52.136;5.592;2023-04-25T01:45:41;28.10;;;8.65;;
23988;SDS011;12202;52.136;5.592;2023-04-25T01:48:08;39.05;;;8.80;;
23988;SDS011;12202;52.136;5.592;2023-04-25T01:50:34;34.83;;;8.63;;
23988;SDS011;12202;52.136;5.592;2023-04-25T01:53:00;42.08;;;9.30;;
23988;SDS011;12202;52.136;5.592;2023-04-25T01:55:29;29.25;;;7.90;;
23988;SDS011;12202;52.136;5.592;2023-04-25T01:57:55;34.03;;;9.05;;
23988;SDS011;12202;52.136;5.592;2023-04-25T02:00:22;30.23;;;8.85;;
23988;SDS011;12202;52.136;5.592;2023-04-25T02:02:49;29.13;;;7.65;;
23988;SDS011;12202;52.136;5.592;2023-04-25T02:05:16;33.92;;;8.90;;
23988;SDS011;12202;52.136;5.592;2023-04-25T02:07:42;31.15;;;7.35;;
23988;SDS011;12202;52.136;5.592;2023-04-25T02:10:08;38.85;;;9.93;;
23988;SDS011;12202;52.136;5.592;2023-04-25T02:12:35;35.65;;;8.23;;
23988;SDS011;12202;52.136;5.592;2023-04-25T02:15:01;29.67;;;8.43;;
23988;SDS011;12202;52.136;5.592;2023-04-25T02:17:27;32.95;;;8.68;;
23988;SDS011;12202;52.136;5.592;2023-04-25T02:19:53;29.63;;;7.85;;
23988;SDS011;12202;52.136;5.592;2023-04-25T02:22:19;33.17;;;8.45;;
23988;SDS011;12202;52.136;5.592;2023-04-25T02:24:45;20.13;;;7.47;;
23988;SDS011;12202;52.136;5.592;2023-04-25T02:27:11;30.48;;;7.97;;
23988;SDS011;12202;52.136;5.592;2023-04-25T02:29:37;26.65;;;7.57;;
23988;SDS011;12202;52.136;5.592;2023-04-25T02:32:03;23.90;;;6.63;;
23988;SDS011;12202;52.136;5.592;2023-04-25T02:34:30;27.83;;;7.75;;
23988;SDS011;12202;52.136;5.592;2023-04-25T02:36:56;29.48;;;9.05;;
23988;SDS011;12202;52.136;5.592;2023-04-25T02:39:22;25.00;;;7.63;;
23988;SDS011;12202;52.136;5.592;2023-04-25T02:41:50;40.08;;;9.55;;
23988;SDS011;12202;52.136;5.592;2023-04-25T02:44:16;36.05;;;9.05;;
23988;SDS011;12202;52.136;5.592;2023-04-25T02:46:41;19.63;;;7.35;;
23988;SDS011;12202;52.136;5.592;2023-04-25T02:49:07;25.55;;;8.35;;
23988;SDS011;12202;52.136;5.592;2023-04-25T02:51:33;29.15;;;8.93;;
23988;SDS011;12202;52.136;5.592;2023-04-25T02:53:59;26.88;;;7.53;;
23988;SDS011;12202;52.136;5.592;2023-04-25T02:56:25;31.73;;;8.18;;
23988;SDS011;12202;52.136;5.592;2023-04-25T02:58:52;39.83;;;10.50;;
23988;SDS011;12202;52.136;5.592;2023-04-25T03:01:18;28.83;;;8.27;;
23988;SDS011;12202;52.136;5.592;2023-04-25T03:03:44;30.65;;;9.35;;
23988;SDS011;12202;52.136;5.592;2023-04-25T03:06:11;37.15;;;10.10;;
23988;SDS011;12202;52.136;5.592;2023-04-25T03:08:37;39.40;;;8.88;;
23988;SDS011;12202;52.136;5.592;2023-04-25T03:11:03;26.88;;;8.38;;
23988;SDS011;12202;52.136;5.592;2023-04-25T03:13:29;39.72;;;8.73;;
23988;SDS011;12202;52.136;5.592;2023-04-25T03:15:55;21.00;;;8.60;;
23988;SDS011;12202;52.136;5.592;2023-04-25T03:18:22;26.63;;;9.30;;
23988;SDS011;12202;52.136;5.592;2023-04-25T03:20:48;29.48;;;8.95;;
23988;SDS011;12202;52.136;5.592;2023-04-25T03:23:14;35.10;;;9.02;;
23988;SDS011;12202;52.136;5.592;2023-04-25T03:25:40;43.35;;;9.60;;
23988;SDS011;12202;52.136;5.592;2023-04-25T03:28:06;33.25;;;9.77;;
23988;SDS011;12202;52.136;5.592;2023-04-25T03:30:32;38.50;;;8.68;;
23988;SDS011;12202;52.136;5.592;2023-04-25T03:32:58;36.65;;;8.43;;
23988;SDS011;12202;52.136;5.592;2023-04-25T03:35:24;32.25;;;8.60;;
23988;SDS011;12202;52.136;5.592;2023-04-25T03:37:50;34.03;;;8.00;;
23988;SDS011;12202;52.136;5.592;2023-04-25T03:40:16;33.80;;;10.30;;
23988;SDS011;12202;52.136;5.592;2023-04-25T03:42:42;25.60;;;8.77;;
23988;SDS011;12202;52.136;5.592;2023-04-25T03:45:08;29.58;;;10.02;;
23988;SDS011;12202;52.136;5.592;2023-04-25T03:47:34;35.10;;;7.97;;
23988;SDS011;12202;52.136;5.592;2023-04-25T03:50:01;35.10;;;9.48;;
23988;SDS011;12202;52.136;5.592;2023-04-25T03:52:27;32.75;;;9.05;;
23988;SDS011;12202;52.136;5.592;2023-04-25T03:54:53;33.17;;;8.25;;
23988;SDS011;12202;52.136;5.592;2023-04-25T03:57:20;33.47;;;8.80;;
23988;SDS011;12202;52.136;5.592;2023-04-25T03:59:45;26.13;;;8.75;;
23988;SDS011;12202;52.136;5.592;2023-04-25T04:02:12;26.05;;;8.38;;
23988;SDS011;12202;52.136;5.592;2023-04-25T04:04:38;35.50;;;8.75;;
23988;SDS011;12202;52.136;5.592;2023-04-25T04:07:04;34.10;;;7.93;;
23988;SDS011;12202;52.136;5.592;2023-04-25T04:09:30;32.30;;;8.55;;
23988;SDS011;12202;52.136;5.592;2023-04-25T04:11:56;29.50;;;7.50;;
23988;SDS011;12202;52.136;5.592;2023-04-25T04:14:22;30.52;;;8.57;;
23988;SDS011;12202;52.136;5.592;2023-04-25T04:16:48;44.08;;;9.50;;
23988;SDS011;12202;52.136;5.592;2023-04-25T04:19:14;36.58;;;8.93;;
23988;SDS011;12202;52.136;5.592;2023-04-25T04:21:40;42.63;;;8.82;;
23988;SDS011;12202;52.136;5.592;2023-04-25T04:24:06;39.10;;;8.65;;
23988;SDS011;12202;52.136;5.592;2023-04-25T04:26:32;30.25;;;9.07;;
23988;SDS011;12202;52.136;5.592;2023-04-25T04:28:59;32.40;;;8.20;;
23988;SDS011;12202;52.136;5.592;2023-04-25T04:31:25;30.35;;;7.47;;
23988;SDS011;12202;52.136;5.592;2023-04-25T04:33:51;29.77;;;8.27;;
23988;SDS011;12202;52.136;5.592;2023-04-25T04:36:17;29.98;;;7.07;;
23988;SDS011;12202;52.136;5.592;2023-04-25T04:38:46;24.80;;;7.22;;
23988;SDS011;12202;52.136;5.592;2023-04-25T04:41:12;27.23;;;7.35;;
23988;SDS011;12202;52.136;5.592;2023-04-25T04:43:38;29.02;;;7.53;;
23988;SDS011;12202;52.136;5.592;2023-04-25T04:46:04;36.45;;;8.20;;
23988;SDS011;12202;52.136;5.592;2023-04-25T04:48:31;30.63;;;8.40;;
23988;SDS011;12202;52.136;5.592;2023-04-25T04:51:00;33.33;;;6.68;;
23988;SDS011;12202;52.136;5.592;2023-04-25T04:53:26;40.20;;;7.75;;
23988;SDS011;12202;52.136;5.592;2023-04-25T04:55:52;24.45;;;6.05;;
23988;SDS011;12202;52.136;5.592;2023-04-25T04:58:18;18.95;;;6.85;;
23988;SDS011;12202;52.136;5.592;2023-04-25T05:00:44;28.23;;;6.30;;
23988;SDS011;12202;52.136;5.592;2023-04-25T05:03:11;18.98;;;5.80;;
23988;SDS011;12202;52.136;5.592;2023-04-25T05:05:38;25.13;;;8.13;;
23988;SDS011;12202;52.136;5.592;2023-04-25T05:08:05;18.08;;;6.90;;
23988;SDS011;12202;52.136;5.592;2023-04-25T05:10:31;33.85;;;8.00;;
23988;SDS011;12202;52.136;5.592;2023-04-25T05:12:57;22.45;;;6.28;;
23988;SDS011;12202;52.136;5.592;2023-04-25T05:15:23;26.55;;;6.80;;
23988;SDS011;12202;52.136;5.592;2023-04-25T05:17:49;26.77;;;6.50;;
23988;SDS011;12202;52.136;5.592;2023-04-25T05:20:16;18.90;;;6.25;;
23988;SDS011;12202;52.136;5.592;2023-04-25T05:22:43;20.23;;;5.63;;
23988;SDS011;12202;52.136;5.592;2023-04-25T05:25:10;23.25;;;6.20;;
23988;SDS011;12202;52.136;5.592;2023-04-25T05:27:36;17.58;;;5.78;;
23988;SDS011;12202;52.136;5.592;2023-04-25T05:30:02;26.20;;;6.88;;
23988;SDS011;12202;52.136;5.592;2023-04-25T05:32:28;18.98;;;6.25;;
23988;SDS011;12202;52.136;5.592;2023-04-25T05:34:54;11.35;;;5.30;;
23988;SDS011;12202;52.136;5.592;2023-04-25T05:37:20;16.38;;;5.07;;
23988;SDS011;12202;52.136;5.592;2023-04-25T05:39:46;14.68;;;4.18;;
23988;SDS011;12202;52.136;5.592;2023-04-25T05:42:12;20.50;;;4.88;;
23988;SDS011;12202;52.136;5.592;2023-04-25T05:44:38;15.23;;;4.43;;
23988;SDS011;12202;52.136;5.592;2023-04-25T05:47:04;16.83;;;5.65;;
23988;SDS011;12202;52.136;5.592;2023-04-25T05:49:31;15.13;;;4.55;;
23988;SDS011;12202;52.136;5.592;2023-04-25T05:51:57;17.20;;;4.55;;
23988;SDS011;12202;52.136;5.592;2023-04-25T05:54:23;27.55;;;6.43;;
23988;SDS011;12202;52.136;5.592;2023-04-25T05:56:49;22.30;;;5.10;;
23988;SDS011;12202;52.136;5.592;2023-04-25T05:59:15;13.52;;;4.85;;
23988;SDS011;12202;52.136;5.592;2023-04-25T06:01:41;18.48;;;5.05;;
23988;SDS011;12202;52.136;5.592;2023-04-25T06:04:07;22.73;;;6.20;;
23988;SDS011;12202;52.136;5.592;2023-04-25T06:06:33;32.55;;;7.00;;
23988;SDS011;12202;52.136;5.592;2023-04-25T06:08:59;20.02;;;5.03;;
23988;SDS011;12202;52.136;5.592;2023-04-25T06:11:25;20.70;;;5.53;;
23988;SDS011;12202;52.136;5.592;2023-04-25T06:13:51;20.58;;;6.53;;
23988;SDS011;12202;52.136;5.592;2023-04-25T06:16:17;15.70;;;4.85;;
23988;SDS011;12202;52.136;5.592;2023-04-25T06:18:43;17.27;;;4.30;;
23988;SDS011;12202;52.136;5.592;2023-04-25T06:21:09;23.70;;;6.72;;
23988;SDS011;12202;52.136;5.592;2023-04-25T06:23:35;17.95;;;4.80;;
23988;SDS011;12202;52.136;5.592;2023-04-25T06:26:01;16.45;;;4.22;;
23988;SDS011;12202;52.136;5.592;2023-04-25T06:28:28;25.92;;;5.75;;
23988;SDS011;12202;52.136;5.592;2023-04-25T06:30:54;23.75;;;5.63;;
23988;SDS011;12202;52.136;5.592;2023-04-25T06:33:20;20.05;;;5.10;;
23988;SDS011;12202;52.136;5.592;2023-04-25T06:35:47;18.63;;;4.65;;
23988;SDS011;12202;52.136;5.592;2023-04-25T06:38:13;20.13;;;6.50;;
23988;SDS011;12202;52.136;5.592;2023-04-25T06:40:39;22.83;;;4.53;;
23988;SDS011;12202;52.136;5.592;2023-04-25T06:43:05;22.42;;;4.88;;
23988;SDS011;12202;52.136;5.592;2023-04-25T06:45:31;18.98;;;4.55;;
23988;SDS011;12202;52.136;5.592;2023-04-25T06:47:57;21.83;;;5.10;;
23988;SDS011;12202;52.136;5.592;2023-04-25T06:50:23;19.95;;;4.65;;
23988;SDS011;12202;52.136;5.592;2023-04-25T06:52:50;20.67;;;4.88;;
23988;SDS011;12202;52.136;5.592;2023-04-25T06:55:16;22.92;;;5.57;;
23988;SDS011;12202;52.136;5.592;2023-04-25T06:57:42;29.90;;;4.72;;
23988;SDS011;12202;52.136;5.592;2023-04-25T07:00:08;28.27;;;4.22;;
23988;SDS011;12202;52.136;5.592;2023-04-25T07:02:34;24.50;;;3.80;;
23988;SDS011;12202;52.136;5.592;2023-04-25T07:05:01;21.60;;;3.63;;
23988;SDS011;12202;52.136;5.592;2023-04-25T07:07:29;14.63;;;3.75;;
23988;SDS011;12202;52.136;5.592;2023-04-25T07:09:55;20.58;;;4.32;;
23988;SDS011;12202;52.136;5.592;2023-04-25T07:12:21;15.60;;;4.15;;
23988;SDS011;12202;52.136;5.592;2023-04-25T07:14:47;26.50;;;5.15;;
23988;SDS011;12202;52.136;5.592;2023-04-25T07:17:13;16.45;;;3.55;;
23988;SDS011;12202;52.136;5.592;2023-04-25T07:19:40;12.75;;;3.38;;
23988;SDS011;12202;52.136;5.592;2023-04-25T07:22:06;16.60;;;3.47;;
23988;SDS011;12202;52.136;5.592;2023-04-25T07:24:32;22.48;;;3.60;;
23988;SDS011;12202;52.136;5.592;2023-04-25T07:26:58;16.55;;;3.38;;
23988;SDS011;12202;52.136;5.592;2023-04-25T07:29:25;18.88;;;4.82;;
23988;SDS011;12202;52.136;5.592;2023-04-25T07:31:51;21.45;;;3.47;;
23988;SDS011;12202;52.136;5.592;2023-04-25T07:34:18;23.80;;;4.18;;
23988;SDS011;12202;52.136;5.592;2023-04-25T07:36:44;17.42;;;3.90;;
23988;SDS011;12202;52.136;5.592;2023-04-25T07:39:10;15.95;;;3.38;;
23988;SDS011;12202;52.136;5.592;2023-04-25T07:41:35;24.60;;;3.63;;
23988;SDS011;12202;52.136;5.592;2023-04-25T07:44:01;20.20;;;3.22;;
23988;SDS011;12202;52.136;5.592;2023-04-25T07:46:27;15.43;;;3.10;;
23988;SDS011;12202;52.136;5.592;2023-04-25T07:48:53;31.48;;;3.58;;
23988;SDS011;12202;52.136;5.592;2023-04-25T07:51:19;17.38;;;3.05;;
23988;SDS011;12202;52.136;5.592;2023-04-25T07:53:47;24.38;;;2.92;;
23988;SDS011;12202;52.136;5.592;2023-04-25T07:56:13;12.80;;;2.75;;
23988;SDS011;12202;52.136;5.592;2023-04-25T07:58:39;14.75;;;2.80;;
23988;SDS011;12202;52.136;5.592;2023-04-25T08:01:05;26.85;;;3.25;;
23988;SDS011;12202;52.136;5.592;2023-04-25T08:03:31;18.13;;;2.97;;
23988;SDS011;12202;52.136;5.592;2023-04-25T08:05:57;18.95;;;2.85;;
23988;SDS011;12202;52.136;5.592;2023-04-25T08:08:23;21.52;;;5.38;;
23988;SDS011;12202;52.136;5.592;2023-04-25T08:10:50;15.75;;;2.88;;
23988;SDS011;12202;52.136;5.592;2023-04-25T08:13:16;15.48;;;2.45;;
23988;SDS011;12202;52.136;5.592;2023-04-25T08:15:42;15.27;;;2.63;;
23988;SDS011;12202;52.136;5.592;2023-04-25T08:18:08;22.35;;;2.85;;
23988;SDS011;12202;52.136;5.592;2023-04-25T08:20:34;11.88;;;2.03;;
23988;SDS011;12202;52.136;5.592;2023-04-25T08:23:00;8.43;;;2.75;;
23988;SDS011;12202;52.136;5.592;2023-04-25T08:25:26;15.23;;;2.83;;
23988;SDS011;12202;52.136;5.592;2023-04-25T08:27:53;17.60;;;3.05;;
23988;SDS011;12202;52.136;5.592;2023-04-25T08:30:19;19.23;;;3.05;;
23988;SDS011;12202;52.136;5.592;2023-04-25T08:32:45;13.43;;;2.95;;
23988;SDS011;12202;52.136;5.592;2023-04-25T08:35:11;11.13;;;2.75;;
23988;SDS011;12202;52.136;5.592;2023-04-25T08:37:37;15.55;;;2.83;;
23988;SDS011;12202;52.136;5.592;2023-04-25T08:40:03;15.13;;;2.58;;
23988;SDS011;12202;52.136;5.592;2023-04-25T08:42:34;20.05;;;3.10;;
23988;SDS011;12202;52.136;5.592;2023-04-25T08:45:01;10.82;;;2.78;;
23988;SDS011;12202;52.136;5.592;2023-04-25T08:47:28;16.52;;;3.17;;
23988;SDS011;12202;52.136;5.592;2023-04-25T08:49:55;19.08;;;6.72;;
23988;SDS011;12202;52.136;5.592;2023-04-25T08:52:22;19.95;;;4.70;;
23988;SDS011;12202;52.136;5.592;2023-04-25T08:54:49;19.70;;;5.47;;
23988;SDS011;12202;52.136;5.592;2023-04-25T08:57:16;19.75;;;6.38;;
23988;SDS011;12202;52.136;5.592;2023-04-25T08:59:43;12.82;;;4.70;;
23988;SDS011;12202;52.136;5.592;2023-04-25T09:02:11;12.38;;;3.40;;
23988;SDS011;12202;52.136;5.592;2023-04-25T09:04:42;12.65;;;3.25;;
23988;SDS011;12202;52.136;5.592;2023-04-25T09:07:08;13.50;;;3.25;;
23988;SDS011;12202;52.136;5.592;2023-04-25T09:09:34;13.88;;;3.60;;
23988;SDS011;12202;52.136;5.592;2023-04-25T09:12:01;12.43;;;3.05;;
23988;SDS011;12202;52.136;5.592;2023-04-25T09:14:27;14.75;;;6.45;;
23988;SDS011;12202;52.136;5.592;2023-04-25T09:19:27;17.85;;;5.60;;
23988;SDS011;12202;52.136;5.592;2023-04-25T09:21:53;12.70;;;3.05;;
23988;SDS011;12202;52.136;5.592;2023-04-25T09:24:42;21.45;;;4.30;;
23988;SDS011;12202;52.136;5.592;2023-04-25T09:27:11;18.15;;;5.47;;
23988;SDS011;12202;52.136;5.592;2023-04-25T09:29:38;16.15;;;5.75;;
23988;SDS011;12202;52.136;5.592;2023-04-25T09:34:43;11.25;;;3.40;;
23988;SDS011;12202;52.136;5.592;2023-04-25T09:37:10;19.23;;;4.50;;
23988;SDS011;12202;52.136;5.592;2023-04-25T09:39:39;6.85;;;1.80;;
23988;SDS011;12202;52.136;5.592;2023-04-25T09:42:05;14.73;;;5.18;;
23988;SDS011;12202;52.136;5.592;2023-04-25T09:44:31;12.95;;;4.75;;
23988;SDS011;12202;52.136;5.592;2023-04-25T09:46:57;16.85;;;6.25;;
23988;SDS011;12202;52.136;5.592;2023-04-25T09:49:24;13.65;;;4.35;;
23988;SDS011;12202;52.136;5.592;2023-04-25T09:51:57;15.70;;;4.80;;
23988;SDS011;12202;52.136;5.592;2023-04-25T09:54:26;14.45;;;4.90;;
23988;SDS011;12202;52.136;5.592;2023-04-25T09:56:53;16.42;;;5.30;;
23988;SDS011;12202;52.136;5.592;2023-04-25T09:59:22;13.75;;;5.47;;
23988;SDS011;12202;52.136;5.592;2023-04-25T10:01:48;18.60;;;5.00;;
23988;SDS011;12202;52.136;5.592;2023-04-25T10:04:22;17.88;;;5.35;;
23988;SDS011;12202;52.136;5.592;2023-04-25T10:06:51;13.20;;;5.75;;
23988;SDS011;12202;52.136;5.592;2023-04-25T10:09:19;17.15;;;6.35;;
23988;SDS011;12202;52.136;5.592;2023-04-25T10:11:46;21.13;;;6.00;;
23988;SDS011;12202;52.136;5.592;2023-04-25T10:14:16;18.70;;;7.10;;
23988;SDS011;12202;52.136;5.592;2023-04-25T10:16:42;22.92;;;8.38;;
23988;SDS011;12202;52.136;5.592;2023-04-25T10:19:09;22.23;;;8.40;;
23988;SDS011;12202;52.136;5.592;2023-04-25T10:21:36;19.13;;;7.68;;
23988;SDS011;12202;52.136;5.592;2023-04-25T10:24:06;20.48;;;10.60;;
23988;SDS011;12202;52.136;5.592;2023-04-25T10:26:32;20.55;;;10.60;;
23988;SDS011;12202;52.136;5.592;2023-04-25T10:28:59;16.10;;;7.00;;
23988;SDS011;12202;52.136;5.592;2023-04-25T10:31:25;11.43;;;4.13;;
23988;SDS011;12202;52.136;5.592;2023-04-25T10:33:51;15.63;;;5.63;;
23988;SDS011;12202;52.136;5.592;2023-04-25T10:36:19;12.45;;;3.55;;
23988;SDS011;12202;52.136;5.592;2023-04-25T10:38:49;13.25;;;3.92;;
23988;SDS011;12202;52.136;5.592;2023-04-25T10:41:15;11.35;;;2.50;;
23988;SDS011;12202;52.136;5.592;2023-04-25T10:43:43;18.27;;;3.70;;
23988;SDS011;12202;52.136;5.592;2023-04-25T10:46:23;13.57;;;3.45;;
23988;SDS011;12202;52.136;5.592;2023-04-25T10:48:50;7.95;;;2.50;;
23988;SDS011;12202;52.136;5.592;2023-04-25T10:51:20;6.75;;;1.98;;
23988;SDS011;12202;52.136;5.592;2023-04-25T10:53:47;9.48;;;1.85;;
23988;SDS011;12202;52.136;5.592;2023-04-25T10:56:16;15.45;;;2.10;;
23988;SDS011;12202;52.136;5.592;2023-04-25T10:58:46;8.77;;;2.53;;
23988;SDS011;12202;52.136;5.592;2023-04-25T11:01:12;11.82;;;2.15;;
23988;SDS011;12202;52.136;5.592;2023-04-25T11:03:42;6.35;;;1.80;;
23988;SDS011;12202;52.136;5.592;2023-04-25T11:06:20;8.70;;;1.60;;
23988;SDS011;12202;52.136;5.592;2023-04-25T11:08:48;7.00;;;2.38;;
23988;SDS011;12202;52.136;5.592;2023-04-25T11:11:15;9.80;;;2.55;;
23988;SDS011;12202;52.136;5.592;2023-04-25T11:13:41;5.25;;;1.67;;
23988;SDS011;12202;52.136;5.592;2023-04-25T11:16:07;9.98;;;1.70;;
23988;SDS011;12202;52.136;5.592;2023-04-25T11:18:33;10.15;;;3.65;;
23988;SDS011;12202;52.136;5.592;2023-04-25T11:20:59;14.82;;;2.70;;
23988;SDS011;12202;52.136;5.592;2023-04-25T11:23:26;12.63;;;2.78;;
23988;SDS011;12202;52.136;5.592;2023-04-25T11:25:52;9.07;;;2.25;;
23988;SDS011;12202;52.136;5.592;2023-04-25T11:28:21;9.52;;;2.65;;
23988;SDS011;12202;52.136;5.592;2023-04-25T11:30:50;7.53;;;2.65;;
23988;SDS011;12202;52.136;5.592;2023-04-25T11:33:17;8.65;;;2.60;;
23988;SDS011;12202;52.136;5.592;2023-04-25T11:35:43;13.15;;;2.55;;
23988;SDS011;12202;52.136;5.592;2023-04-25T11:38:09;11.57;;;3.13;;
23988;SDS011;12202;52.136;5.592;2023-04-25T11:40:36;14.30;;;3.30;;
23988;SDS011;12202;52.136;5.592;2023-04-25T11:43:02;10.60;;;2.92;;
23988;SDS011;12202;52.136;5.592;2023-04-25T11:45:28;14.57;;;3.50;;
23988;SDS011;12202;52.136;5.592;2023-04-25T11:47:56;12.95;;;2.97;;
23988;SDS011;12202;52.136;5.592;2023-04-25T11:50:22;18.27;;;3.17;;
23988;SDS011;12202;52.136;5.592;2023-04-25T11:52:48;8.13;;;2.83;;
23988;SDS011;12202;52.136;5.592;2023-04-25T11:57:41;16.15;;;3.70;;
23988;SDS011;12202;52.136;5.592;2023-04-25T12:00:12;9.88;;;3.30;;
23988;SDS011;12202;52.136;5.592;2023-04-25T12:02:42;16.65;;;5.32;;
23988;SDS011;12202;52.136;5.592;2023-04-25T12:05:08;15.57;;;3.78;;
23988;SDS011;12202;52.136;5.592;2023-04-25T12:07:35;14.18;;;3.63;;
23988;SDS011;12202;52.136;5.592;2023-04-25T12:10:10;7.47;;;2.78;;
23988;SDS011;12202;52.136;5.592;2023-04-25T12:12:37;19.83;;;3.30;;
23988;SDS011;12202;52.136;5.592;2023-04-25T12:15:13;14.75;;;3.75;;
23988;SDS011;12202;52.136;5.592;2023-04-25T12:17:47;12.90;;;3.30;;
23988;SDS011;12202;52.136;5.592;2023-04-25T12:20:14;9.18;;;2.95;;
23988;SDS011;12202;52.136;5.592;2023-04-25T12:22:41;14.25;;;3.05;;
23988;SDS011;12202;52.136;5.592;2023-04-25T12:25:10;13.07;;;2.40;;
23988;SDS011;12202;52.136;5.592;2023-04-25T12:27:37;13.98;;;3.00;;
23988;SDS011;12202;52.136;5.592;2023-04-25T12:30:06;10.50;;;2.33;;
23988;SDS011;12202;52.136;5.592;2023-04-25T12:32:32;11.32;;;3.65;;
23988;SDS011;12202;52.136;5.592;2023-04-25T12:34:58;10.35;;;1.75;;
23988;SDS011;12202;52.136;5.592;2023-04-25T12:37:24;5.18;;;1.90;;
23988;SDS011;12202;52.136;5.592;2023-04-25T12:39:50;7.47;;;1.67;;
23988;SDS011;12202;52.136;5.592;2023-04-25T12:42:16;6.28;;;1.15;;
23988;SDS011;12202;52.136;5.592;2023-04-25T12:44:42;10.93;;;1.58;;
23988;SDS011;12202;52.136;5.592;2023-04-25T12:47:08;12.70;;;2.45;;
23988;SDS011;12202;52.136;5.592;2023-04-25T12:49:34;12.68;;;2.22;;
23988;SDS011;12202;52.136;5.592;2023-04-25T12:52:00;6.78;;;1.85;;
23988;SDS011;12202;52.136;5.592;2023-04-25T12:54:26;7.10;;;1.80;;
23988;SDS011;12202;52.136;5.592;2023-04-25T12:56:52;9.43;;;1.83;;
23988;SDS011;12202;52.136;5.592;2023-04-25T12:59:18;14.82;;;3.35;;
23988;SDS011;12202;52.136;5.592;2023-04-25T13:01:45;10.70;;;4.10;;
23988;SDS011;12202;52.136;5.592;2023-04-25T13:04:11;14.15;;;4.63;;
23988;SDS011;12202;52.136;5.592;2023-04-25T13:06:37;8.55;;;4.00;;
23988;SDS011;12202;52.136;5.592;2023-04-25T13:09:03;5.72;;;2.40;;
23988;SDS011;12202;52.136;5.592;2023-04-25T13:11:29;13.95;;;3.03;;
23988;SDS011;12202;52.136;5.592;2023-04-25T13:13:56;9.30;;;2.95;;
23988;SDS011;12202;52.136;5.592;2023-04-25T13:16:22;4.95;;;2.05;;
23988;SDS011;12202;52.136;5.592;2023-04-25T13:18:48;7.53;;;2.33;;
23988;SDS011;12202;52.136;5.592;2023-04-25T13:21:14;7.95;;;2.35;;
23988;SDS011;12202;52.136;5.592;2023-04-25T13:23:40;5.70;;;2.28;;
23988;SDS011;12202;52.136;5.592;2023-04-25T13:26:07;8.02;;;3.30;;
23988;SDS011;12202;52.136;5.592;2023-04-25T13:28:33;6.40;;;2.38;;
23988;SDS011;12202;52.136;5.592;2023-04-25T13:30:59;4.82;;;1.90;;
23988;SDS011;12202;52.136;5.592;2023-04-25T13:33:25;8.40;;;2.63;;
23988;SDS011;12202;52.136;5.592;2023-04-25T13:35:52;9.75;;;2.13;;
23988;SDS011;12202;52.136;5.592;2023-04-25T13:38:22;11.10;;;2.63;;
23988;SDS011;12202;52.136;5.592;2023-04-25T13:40:49;8.52;;;2.10;;
23988;SDS011;12202;52.136;5.592;2023-04-25T13:43:18;17.90;;;3.83;;
23988;SDS011;12202;52.136;5.592;2023-04-25T13:45:45;15.23;;;2.90;;
23988;SDS011;12202;52.136;5.592;2023-04-25T13:48:11;7.63;;;1.90;;
23988;SDS011;12202;52.136;5.592;2023-04-25T13:50:37;8.60;;;2.20;;
23988;SDS011;12202;52.136;5.592;2023-04-25T13:53:06;11.02;;;1.77;;
23988;SDS011;12202;52.136;5.592;2023-04-25T13:55:33;5.43;;;1.75;;
23988;SDS011;12202;52.136;5.592;2023-04-25T13:58:00;11.23;;;3.28;;
23988;SDS011;12202;52.136;5.592;2023-04-25T14:00:32;10.20;;;2.13;;
23988;SDS011;12202;52.136;5.592;2023-04-25T14:02:57;9.82;;;2.47;;
23988;SDS011;12202;52.136;5.592;2023-04-25T14:05:23;9.05;;;1.75;;
23988;SDS011;12202;52.136;5.592;2023-04-25T14:07:49;7.20;;;2.83;;
23988;SDS011;12202;52.136;5.592;2023-04-25T14:10:17;10.50;;;2.70;;
23988;SDS011;12202;52.136;5.592;2023-04-25T14:12:43;9.32;;;2.22;;
23988;SDS011;12202;52.136;5.592;2023-04-25T14:15:09;5.68;;;2.35;;
23988;SDS011;12202;52.136;5.592;2023-04-25T14:17:35;7.15;;;2.40;;
23988;SDS011;12202;52.136;5.592;2023-04-25T14:20:02;8.85;;;2.60;;
23988;SDS011;12202;52.136;5.592;2023-04-25T14:22:30;7.13;;;2.30;;
23988;SDS011;12202;52.136;5.592;2023-04-25T14:24:56;8.15;;;2.45;;
23988;SDS011;12202;52.136;5.592;2023-04-25T14:27:23;6.38;;;1.98;;
23988;SDS011;12202;52.136;5.592;2023-04-25T14:29:49;7.70;;;3.67;;
23988;SDS011;12202;52.136;5.592;2023-04-25T14:32:15;6.55;;;2.15;;
23988;SDS011;12202;52.136;5.592;2023-04-25T14:34:41;5.50;;;2.42;;
23988;SDS011;12202;52.136;5.592;2023-04-25T14:37:07;8.75;;;2.17;;
23988;SDS011;12202;52.136;5.592;2023-04-25T14:39:33;11.15;;;2.20;;
23988;SDS011;12202;52.136;5.592;2023-04-25T14:41:59;14.85;;;3.17;;
23988;SDS011;12202;52.136;5.592;2023-04-25T14:44:25;5.22;;;1.80;;